createdAt,value
2018-02-20T00:01:13.963Z,12.93
2018-02-20T00:03:43.256Z,11.10
2018-02-20T00:06:12.756Z,12.25
2018-02-20T00:08:42.788Z,12.40
2018-02-20T00:11:12.109Z,13.77
2018-02-20T00:13:41.407Z,13.07
2018-02-20T00:16:10.672Z,11.47
2018-02-20T00:18:40.144Z,11.73
2018-02-20T00:21:10.203Z,11.48
2018-02-20T00:23:39.526Z,12.65
2018-02-20T00:26:10.110Z,12.88
2018-02-20T00:28:39.416Z,11.80
2018-02-20T00:31:08.928Z,12.45
2018-02-20T00:33:38.353Z,11.50
2018-02-20T00:36:07.684Z,12.23
2018-02-20T00:38:37.003Z,11.93
2018-02-20T00:41:06.271Z,13.02
2018-02-20T00:43:35.567Z,12.30
2018-02-20T00:46:04.848Z,11.45
2018-02-20T00:48:35.105Z,13.20
2018-02-20T00:51:04.390Z,10.98
2018-02-20T00:53:33.719Z,11.95
2018-02-20T00:56:06.331Z,11.93
2018-02-20T00:58:35.627Z,14.43
2018-02-20T01:01:05.269Z,13.05
2018-02-20T01:03:34.527Z,11.17
2018-02-20T01:06:04.595Z,11.85
2018-02-20T01:08:33.915Z,12.15
2018-02-20T01:11:03.283Z,11.45
2018-02-20T01:13:32.862Z,11.57
2018-02-20T01:16:02.137Z,12.35
2018-02-20T01:18:33.531Z,12.75
2018-02-20T01:21:02.795Z,14.10
2018-02-20T01:23:33.779Z,12.55
2018-02-20T01:26:03.070Z,13.45
2018-02-20T01:28:32.429Z,12.40
2018-02-20T01:31:01.700Z,12.45
2018-02-20T01:33:31.004Z,10.85
2018-02-20T01:36:00.288Z,12.43
2018-02-20T01:38:29.587Z,12.37
2018-02-20T01:40:58.897Z,12.45
2018-02-20T01:43:28.171Z,12.68
2018-02-20T01:45:57.479Z,11.65
2018-02-20T01:48:26.844Z,11.93
2018-02-20T01:51:08.896Z,12.30
2018-02-20T01:53:38.192Z,13.60
2018-02-20T01:56:07.514Z,12.82
2018-02-20T01:58:36.819Z,11.75
2018-02-20T02:01:06.102Z,13.45
2018-02-20T02:03:39.065Z,12.48
2018-02-20T02:06:08.366Z,13.35
2018-02-20T02:08:37.634Z,12.90
2018-02-20T02:11:06.956Z,12.57
2018-02-20T02:13:36.271Z,11.20
2018-02-20T02:16:05.571Z,13.62
2018-02-20T02:18:34.840Z,13.35
2018-02-20T02:21:04.170Z,14.35
2018-02-20T02:23:33.463Z,13.40
2018-02-20T02:26:02.757Z,13.50
2018-02-20T02:28:32.059Z,12.90
2018-02-20T02:31:01.355Z,13.50
2018-02-20T02:33:30.621Z,13.35
2018-02-20T02:35:59.919Z,13.32
2018-02-20T02:38:29.196Z,13.70
2018-02-20T02:41:04.020Z,13.98
2018-02-20T02:43:33.390Z,13.43
2018-02-20T02:46:02.699Z,13.15
2018-02-20T02:48:32.135Z,13.77
2018-02-20T02:51:01.432Z,13.35
2018-02-20T02:53:30.709Z,12.90
2018-02-20T02:56:00.023Z,11.63
2018-02-20T02:58:29.339Z,15.02
2018-02-20T03:00:58.683Z,12.30
2018-02-20T03:03:28.047Z,13.82
2018-02-20T03:05:58.100Z,15.43
2018-02-20T03:08:27.518Z,12.85
2018-02-20T03:10:56.803Z,13.57
2018-02-20T03:13:26.263Z,13.15
2018-02-20T03:15:55.556Z,15.13
2018-02-20T03:18:25.072Z,12.68
2018-02-20T03:20:54.544Z,14.90
2018-02-20T03:23:23.835Z,12.80
2018-02-20T03:25:53.163Z,14.90
2018-02-20T03:28:22.577Z,12.40
2018-02-20T03:30:51.883Z,12.02
2018-02-20T03:33:21.211Z,13.55
2018-02-20T03:35:58.135Z,12.15
2018-02-20T03:38:28.248Z,13.95
2018-02-20T03:40:57.885Z,15.23
2018-02-20T03:43:27.198Z,12.50
2018-02-20T03:45:56.482Z,13.90
2018-02-20T03:48:25.826Z,13.15
2018-02-20T03:50:55.150Z,12.43
2018-02-20T03:53:24.431Z,13.00
2018-02-20T03:55:54.519Z,13.18
2018-02-20T03:58:23.796Z,13.45
2018-02-20T04:00:57.420Z,12.90
2018-02-20T04:03:26.809Z,12.82
2018-02-20T04:05:56.151Z,11.70
2018-02-20T04:08:25.425Z,12.52
2018-02-20T04:10:54.772Z,11.55
2018-02-20T04:13:24.088Z,14.00
2018-02-20T04:15:53.460Z,12.20
2018-02-20T04:18:22.786Z,14.90
2018-02-20T04:20:52.189Z,10.23
2018-02-20T04:23:21.528Z,13.45
2018-02-20T04:25:51.678Z,12.07
2018-02-20T04:28:20.945Z,13.52
2018-02-20T04:30:50.239Z,13.30
2018-02-20T04:33:19.547Z,11.85
2018-02-20T04:35:48.865Z,12.30
2018-02-20T04:38:18.271Z,13.50
2018-02-20T04:40:47.614Z,13.20
2018-02-20T04:43:16.901Z,13.57
2018-02-20T04:45:46.243Z,12.10
2018-02-20T04:48:16.285Z,13.90
2018-02-20T04:50:48.312Z,12.43
2018-02-20T04:53:17.604Z,11.43
2018-02-20T04:55:47.218Z,12.82
2018-02-20T04:58:25.100Z,12.95
2018-02-20T05:00:55.267Z,13.40
2018-02-20T05:03:24.576Z,14.07
2018-02-20T05:05:53.847Z,12.45
2018-02-20T05:08:23.199Z,13.55
2018-02-20T05:10:52.539Z,11.95
2018-02-20T05:13:21.867Z,11.52
2018-02-20T05:15:51.154Z,12.37
2018-02-20T05:18:20.454Z,14.77
2018-02-20T05:20:49.808Z,13.10
2018-02-20T05:23:19.105Z,13.95
2018-02-20T05:25:48.417Z,13.90
2018-02-20T05:28:17.707Z,11.80
2018-02-20T05:30:49.297Z,12.70
2018-02-20T05:33:18.578Z,15.07
2018-02-20T05:35:51.841Z,13.90
2018-02-20T05:38:21.240Z,16.00
2018-02-20T05:40:50.545Z,14.60
2018-02-20T05:43:19.881Z,13.85
2018-02-20T05:45:49.287Z,15.05
2018-02-20T05:48:18.542Z,13.85
2018-02-20T05:50:47.861Z,15.85
2018-02-20T05:53:20.875Z,13.05
2018-02-20T05:55:50.535Z,14.15
2018-02-20T05:58:21.625Z,14.38
2018-02-20T06:00:50.940Z,14.50
2018-02-20T06:03:24.842Z,12.40
2018-02-20T06:05:54.936Z,12.18
2018-02-20T06:08:24.747Z,13.57
2018-02-20T06:10:58.898Z,14.52
2018-02-20T06:13:28.345Z,17.00
2018-02-20T06:15:59.833Z,15.35
2018-02-20T06:18:29.580Z,13.93
2018-02-20T06:20:58.869Z,15.52
2018-02-20T06:23:28.181Z,13.62
2018-02-20T06:25:57.499Z,14.95
2018-02-20T06:28:26.870Z,15.50
2018-02-20T06:30:56.194Z,13.80
2018-02-20T06:33:26.259Z,13.77
2018-02-20T06:35:55.567Z,14.70
2018-02-20T06:38:24.854Z,13.82
2018-02-20T06:40:54.973Z,14.95
2018-02-20T06:43:24.246Z,12.37
2018-02-20T06:45:53.562Z,14.25
2018-02-20T06:48:22.859Z,14.27
2018-02-20T06:50:52.170Z,14.65
2018-02-20T06:53:21.445Z,15.20
2018-02-20T06:55:51.524Z,15.07
2018-02-20T06:58:20.864Z,15.13
2018-02-20T07:00:50.214Z,13.88
2018-02-20T07:03:20.269Z,12.73
2018-02-20T07:05:50.510Z,12.55
2018-02-20T07:08:19.791Z,13.70
2018-02-20T07:10:49.115Z,13.62
2018-02-20T07:13:18.398Z,12.93
2018-02-20T07:15:48.470Z,13.32
2018-02-20T07:18:17.747Z,15.95
2018-02-20T07:20:47.830Z,14.73
2018-02-20T07:23:17.127Z,14.93
2018-02-20T07:25:46.431Z,14.63
2018-02-20T07:28:15.690Z,15.35
2018-02-20T07:30:45.023Z,14.10
2018-02-20T07:33:14.294Z,15.40
2018-02-20T07:35:43.663Z,15.07
2018-02-20T07:38:12.943Z,15.88
2018-02-20T07:40:43.235Z,14.55
2018-02-20T07:43:12.506Z,13.90
2018-02-20T07:45:41.834Z,14.15
2018-02-20T07:48:11.139Z,15.50
2018-02-20T07:50:41.262Z,15.13
2018-02-20T07:53:10.532Z,15.90
2018-02-20T07:55:39.894Z,19.27
2018-02-20T07:58:09.349Z,13.90
2018-02-20T08:00:38.703Z,14.50
2018-02-20T08:03:08.022Z,14.13
2018-02-20T08:05:37.399Z,15.93
2018-02-20T08:08:06.667Z,15.32
2018-02-20T08:10:36.723Z,15.23
2018-02-20T08:13:05.986Z,15.10
2018-02-20T08:15:36.093Z,14.15
2018-02-20T08:18:05.352Z,13.43
2018-02-20T08:20:39.289Z,15.48
2018-02-20T08:23:08.559Z,15.25
2018-02-20T08:25:38.651Z,16.00
2018-02-20T08:28:07.968Z,14.45
2018-02-20T08:30:37.266Z,15.05
2018-02-20T08:33:06.548Z,15.60
2018-02-20T08:35:35.881Z,15.13
2018-02-20T08:38:05.161Z,14.55
2018-02-20T08:40:36.127Z,13.93
2018-02-20T08:43:05.446Z,15.70
2018-02-20T08:45:34.736Z,16.85
2018-02-20T08:48:04.801Z,14.20
2018-02-20T08:50:34.115Z,14.77
2018-02-20T08:53:03.376Z,15.32
2018-02-20T08:55:32.744Z,15.07
2018-02-20T08:58:02.069Z,17.27
2018-02-20T09:00:31.399Z,17.15
2018-02-20T09:03:00.678Z,14.38
2018-02-20T09:05:29.987Z,14.87
2018-02-20T09:07:59.282Z,15.77
2018-02-20T09:10:29.531Z,15.47
2018-02-20T09:12:58.819Z,17.90
2018-02-20T09:15:28.122Z,14.80
2018-02-20T09:17:58.199Z,15.23
2018-02-20T09:20:27.475Z,16.20
2018-02-20T09:22:58.721Z,15.43
2018-02-20T09:25:28.810Z,15.40
2018-02-20T09:27:58.154Z,16.33
2018-02-20T09:30:27.476Z,16.00
2018-02-20T09:32:58.466Z,16.30
2018-02-20T09:35:27.870Z,15.17
2018-02-20T09:37:57.162Z,15.30
2018-02-20T09:40:26.413Z,15.37
2018-02-20T09:42:55.696Z,15.60
2018-02-20T09:45:25.021Z,14.47
2018-02-20T09:47:54.443Z,16.58
2018-02-20T09:50:23.851Z,15.53
2018-02-20T09:52:53.103Z,16.37
2018-02-20T09:55:22.490Z,16.30
2018-02-20T09:57:53.878Z,16.30
2018-02-20T10:00:23.147Z,14.50
2018-02-20T10:02:52.420Z,17.43
2018-02-20T10:05:21.691Z,14.80
2018-02-20T10:07:51.014Z,15.40
2018-02-20T10:10:20.257Z,16.97
2018-02-20T10:12:50.405Z,16.53
2018-02-20T10:15:19.659Z,18.30
2018-02-20T10:17:48.950Z,15.47
2018-02-20T10:20:18.237Z,17.00
2018-02-20T10:22:48.298Z,17.60
2018-02-20T10:25:17.564Z,15.63
2018-02-20T10:27:46.863Z,15.20
2018-02-20T10:30:16.139Z,17.83
2018-02-20T10:32:45.466Z,17.40
2018-02-20T10:35:14.736Z,17.73
2018-02-20T10:37:44.807Z,19.13
2018-02-20T10:40:14.073Z,18.20
2018-02-20T10:42:44.129Z,17.33
2018-02-20T10:45:13.422Z,18.10
2018-02-20T10:47:43.539Z,17.03
2018-02-20T10:50:13.584Z,16.57
2018-02-20T10:52:43.750Z,19.07
2018-02-20T10:55:13.014Z,19.43
2018-02-20T10:57:43.080Z,21.90
2018-02-20T11:00:12.365Z,17.30
2018-02-20T11:02:42.566Z,17.67
2018-02-20T11:05:11.818Z,16.23
2018-02-20T11:07:41.114Z,17.27
2018-02-20T11:10:10.391Z,18.00
2018-02-20T11:12:39.645Z,18.50
2018-02-20T11:15:08.943Z,17.03
2018-02-20T11:17:38.252Z,16.97
2018-02-20T11:20:07.535Z,17.80
2018-02-20T11:22:37.006Z,18.00
2018-02-20T11:25:06.292Z,16.90
2018-02-20T11:27:35.554Z,16.53
2018-02-20T11:30:04.925Z,16.90
2018-02-20T11:32:34.179Z,16.20
2018-02-20T11:35:03.497Z,17.47
2018-02-20T11:37:32.759Z,17.90
2018-02-20T11:40:02.838Z,16.27
2018-02-20T11:42:32.098Z,16.30
2018-02-20T11:45:02.162Z,17.70
2018-02-20T11:47:31.416Z,16.60
2018-02-20T11:50:00.714Z,16.67
2018-02-20T11:52:30.016Z,16.30
2018-02-20T11:54:59.302Z,15.30
2018-02-20T11:57:28.607Z,15.93
2018-02-20T11:59:57.906Z,16.50
2018-02-20T12:02:27.940Z,16.43
2018-02-20T12:04:57.244Z,15.20
2018-02-20T12:07:27.299Z,15.80
2018-02-20T12:09:56.592Z,15.40
2018-02-20T12:12:26.650Z,16.47
2018-02-20T12:14:55.935Z,17.43
2018-02-20T12:17:25.991Z,17.10
2018-02-20T12:19:55.298Z,17.10
2018-02-20T12:22:24.563Z,14.33
2018-02-20T12:24:53.902Z,15.40
2018-02-20T12:27:23.922Z,16.17
2018-02-20T12:29:53.995Z,16.07
2018-02-20T12:32:23.274Z,15.10
2018-02-20T12:34:53.754Z,16.33
2018-02-20T12:37:23.036Z,15.73
2018-02-20T12:39:52.348Z,17.60
2018-02-20T12:42:21.671Z,15.47
2018-02-20T12:44:50.973Z,13.90
2018-02-20T12:47:20.251Z,15.43
2018-02-20T12:49:49.534Z,16.37
2018-02-20T12:52:18.799Z,14.03
2018-02-20T12:54:48.091Z,14.27
2018-02-20T12:57:17.358Z,14.60
2018-02-20T12:59:46.675Z,12.30
2018-02-20T13:02:15.967Z,12.80
2018-02-20T13:04:45.241Z,14.90
2018-02-20T13:07:14.565Z,15.57
2018-02-20T13:09:43.860Z,15.93
2018-02-20T13:12:13.109Z,13.90
2018-02-20T13:14:42.389Z,12.57
2018-02-20T13:17:12.417Z,17.20
2018-02-20T13:19:42.478Z,15.97
2018-02-20T13:22:11.757Z,17.77
2018-02-20T13:24:41.831Z,15.23
2018-02-20T13:27:11.135Z,15.57
2018-02-20T13:29:40.401Z,15.17
2018-02-20T13:32:09.700Z,17.33
2018-02-20T13:34:38.955Z,15.30
2018-02-20T13:37:08.234Z,16.00
2018-02-20T13:39:37.530Z,13.90
2018-02-20T13:42:06.853Z,15.30
2018-02-20T13:44:36.098Z,15.63
2018-02-20T13:47:06.266Z,17.30
2018-02-20T13:49:35.547Z,15.20
2018-02-20T13:52:04.824Z,13.73
2018-02-20T13:54:34.136Z,16.10
2018-02-20T13:57:03.424Z,15.40
2018-02-20T13:59:32.699Z,15.90
2018-02-20T14:02:01.984Z,13.60
2018-02-20T14:04:32.058Z,14.20
2018-02-20T14:07:01.328Z,15.87
2018-02-20T14:09:31.389Z,16.63
2018-02-20T14:12:00.689Z,14.67
2018-02-20T14:14:29.999Z,15.27
2018-02-20T14:16:59.294Z,16.63
2018-02-20T14:19:28.599Z,16.90
2018-02-20T14:21:57.891Z,16.13
2018-02-20T14:24:27.148Z,14.50
2018-02-20T14:26:57.342Z,16.13
2018-02-20T14:29:26.668Z,15.07
2018-02-20T14:31:55.919Z,17.43
2018-02-20T14:34:25.253Z,15.47
2018-02-20T14:36:54.519Z,17.00
2018-02-20T14:39:23.801Z,16.37
2018-02-20T14:41:53.137Z,17.83
2018-02-20T14:44:22.413Z,17.10
2018-02-20T14:46:51.703Z,18.70
2018-02-20T14:49:20.958Z,17.60
2018-02-20T14:51:50.263Z,19.90
2018-02-20T14:54:19.548Z,16.37
2018-02-20T14:56:48.844Z,17.00
2018-02-20T14:59:18.116Z,17.07
2018-02-20T15:01:48.459Z,17.83
2018-02-20T15:04:17.695Z,19.65
2018-02-20T15:06:46.985Z,19.60
2018-02-20T15:09:17.014Z,19.17
2018-02-20T15:11:47.282Z,19.90
2018-02-20T15:14:16.547Z,15.63
2018-02-20T15:16:45.842Z,17.30
2018-02-20T15:19:15.125Z,19.00
2018-02-20T15:21:44.406Z,17.30
2018-02-20T15:24:13.695Z,20.73
2018-02-20T15:26:43.779Z,18.90
2018-02-20T15:29:13.162Z,16.63
2018-02-20T15:31:43.214Z,20.10
2018-02-20T15:34:12.535Z,19.43
2018-02-20T15:36:41.785Z,19.77
2018-02-20T15:39:11.082Z,17.80
2018-02-20T15:41:40.339Z,20.70
2018-02-20T15:44:09.643Z,19.50
2018-02-20T15:46:39.666Z,18.97
2018-02-20T15:49:09.739Z,17.60
2018-02-20T15:51:39.035Z,19.27
2018-02-20T15:54:09.240Z,18.70
2018-02-20T15:56:38.509Z,18.03
2018-02-20T15:59:07.814Z,19.40
2018-02-20T16:01:37.086Z,18.33
2018-02-20T16:04:06.387Z,18.73
2018-02-20T16:06:36.440Z,17.20
2018-02-20T16:09:05.935Z,17.20
2018-02-20T16:11:35.198Z,18.90
2018-02-20T16:14:06.516Z,18.97
2018-02-20T16:16:36.587Z,21.60
2018-02-20T16:19:05.923Z,19.97
2018-02-20T16:21:35.235Z,19.53
2018-02-20T16:24:04.562Z,18.03
2018-02-20T16:26:33.864Z,18.80
2018-02-20T16:29:03.136Z,18.30
2018-02-20T16:31:32.396Z,19.57
2018-02-20T16:34:01.704Z,18.17
2018-02-20T16:36:30.996Z,20.37
2018-02-20T16:39:00.288Z,19.13
2018-02-20T16:41:29.561Z,20.23
2018-02-20T16:43:59.627Z,19.00
2018-02-20T16:46:28.918Z,19.70
2018-02-20T16:48:58.183Z,18.47
2018-02-20T16:51:27.501Z,18.83
2018-02-20T16:53:56.797Z,19.83
2018-02-20T16:56:26.071Z,17.90
2018-02-20T16:58:55.342Z,21.47
2018-02-20T17:01:24.659Z,19.57
2018-02-20T17:03:53.916Z,19.23
2018-02-20T17:06:23.235Z,18.20
2018-02-20T17:08:52.502Z,18.40
2018-02-20T17:11:22.568Z,18.53
2018-02-20T17:13:51.836Z,19.67
2018-02-20T17:16:21.132Z,20.67
2018-02-20T17:18:50.424Z,20.58
2018-02-20T17:21:19.698Z,19.73
2018-02-20T17:23:49.021Z,20.20
2018-02-20T17:26:18.303Z,20.83
2018-02-20T17:28:48.348Z,19.43
2018-02-20T17:31:17.630Z,20.80
2018-02-20T17:33:46.945Z,19.30
2018-02-20T17:36:16.237Z,21.13
2018-02-20T17:38:45.487Z,19.57
2018-02-20T17:41:14.780Z,21.10
2018-02-20T17:43:44.038Z,21.53
2018-02-20T17:46:13.326Z,19.93
2018-02-20T17:48:43.386Z,22.10
2018-02-20T17:51:12.682Z,21.47
2018-02-20T17:53:41.948Z,18.40
2018-02-20T17:56:11.244Z,20.90
2018-02-20T17:58:40.512Z,20.80
2018-02-20T18:01:09.791Z,22.03
2018-02-20T18:03:39.052Z,22.57
2018-02-20T18:06:08.367Z,20.23
2018-02-20T18:08:37.642Z,19.10
2018-02-20T18:11:08.077Z,20.77
2018-02-20T18:13:37.341Z,19.90
2018-02-20T18:16:06.599Z,23.40
2018-02-20T18:18:35.907Z,22.30
2018-02-20T18:21:05.202Z,22.00
2018-02-20T18:23:34.476Z,20.47
2018-02-20T18:26:03.770Z,19.40
2018-02-20T18:28:33.048Z,20.97
2018-02-20T18:31:02.367Z,21.43
2018-02-20T18:33:31.634Z,22.30
2018-02-20T18:36:00.931Z,21.40
2018-02-20T18:38:30.208Z,21.43
2018-02-20T18:41:00.284Z,21.57
2018-02-20T18:43:29.555Z,21.00
2018-02-20T18:45:59.631Z,21.87
2018-02-20T18:48:29.836Z,20.37
2018-02-20T18:50:59.157Z,20.50
2018-02-20T18:56:02.647Z,22.30
2018-02-20T18:58:32.619Z,20.90
2018-02-20T19:01:02.038Z,21.17
2018-02-20T19:03:31.348Z,21.37
2018-02-20T19:06:00.679Z,18.40
2018-02-20T19:08:30.010Z,21.50
2018-02-20T19:10:59.323Z,20.57
2018-02-20T19:13:28.615Z,21.73
2018-02-20T19:15:57.956Z,21.50
2018-02-20T19:18:27.302Z,19.63
2018-02-20T19:20:56.588Z,27.23
2018-02-20T19:23:25.957Z,19.73
2018-02-20T19:25:55.350Z,20.50
2018-02-20T19:28:24.635Z,17.50
2018-02-20T19:30:53.943Z,19.40
2018-02-20T19:33:23.213Z,20.27
2018-02-20T19:35:54.493Z,20.10
2018-02-20T19:38:23.767Z,21.07
2018-02-20T19:40:53.106Z,20.23
2018-02-20T19:43:22.385Z,18.60
2018-02-20T19:45:52.646Z,19.10
2018-02-20T19:48:23.958Z,17.20
2018-02-20T19:50:53.287Z,21.52
2018-02-20T19:53:22.575Z,18.57
2018-02-20T19:55:51.864Z,19.97
2018-02-20T19:58:21.127Z,19.03
2018-02-20T20:00:51.215Z,20.47
2018-02-20T20:03:20.485Z,18.33
2018-02-20T20:05:49.783Z,18.07
2018-02-20T20:08:19.120Z,19.90
2018-02-20T20:10:48.485Z,20.93
2018-02-20T20:13:17.773Z,17.98
2018-02-20T20:15:47.101Z,19.00
2018-02-20T20:18:16.459Z,20.48
2018-02-20T20:20:48.059Z,20.10
2018-02-20T20:23:15.030Z,19.50
2018-02-20T20:25:44.457Z,24.30
2018-02-20T20:28:13.741Z,19.80
2018-02-20T20:30:43.042Z,20.87
2018-02-20T20:33:12.330Z,18.47
2018-02-20T20:35:42.669Z,22.00
2018-02-20T20:38:11.950Z,18.67
2018-02-20T20:40:41.245Z,20.77
2018-02-20T20:43:10.552Z,22.73
2018-02-20T20:45:39.830Z,20.77
2018-02-20T20:48:09.140Z,22.27
2018-02-20T20:50:38.426Z,22.33
2018-02-20T20:53:08.559Z,21.08
2018-02-20T20:55:37.852Z,21.70
2018-02-20T20:58:07.195Z,20.57
2018-02-20T21:00:36.470Z,21.00
2018-02-20T21:03:06.828Z,20.83
2018-02-20T21:05:36.861Z,23.07
2018-02-20T21:08:06.154Z,21.33
2018-02-20T21:10:35.425Z,20.67
2018-02-20T21:13:04.767Z,22.47
2018-02-20T21:15:34.064Z,23.87
2018-02-20T21:18:03.388Z,20.70
2018-02-20T21:20:32.667Z,21.55
2018-02-20T21:23:01.984Z,18.70
2018-02-20T21:25:31.306Z,21.20
2018-02-20T21:28:02.796Z,22.58
2018-02-20T21:30:32.055Z,22.37
2018-02-20T21:33:01.511Z,22.33
2018-02-20T21:35:30.810Z,21.85
2018-02-20T21:38:00.120Z,21.33
2018-02-20T21:40:29.422Z,23.55
2018-02-20T21:42:58.701Z,24.33
2018-02-20T21:45:28.775Z,24.48
2018-02-20T21:47:58.067Z,22.95
2018-02-20T21:50:27.377Z,24.02
2018-02-20T21:52:56.664Z,21.33
2018-02-20T21:55:25.967Z,24.67
2018-02-20T21:57:55.277Z,21.90
2018-02-20T22:00:24.595Z,21.23
2018-02-20T22:02:54.631Z,23.73
2018-02-20T22:05:23.931Z,23.42
2018-02-20T22:07:54.933Z,23.85
2018-02-20T22:10:24.244Z,25.55
2018-02-20T22:12:53.520Z,21.30
2018-02-20T22:15:22.819Z,24.77
2018-02-20T22:17:52.099Z,19.33
2018-02-20T22:20:21.425Z,22.63
2018-02-20T22:22:50.700Z,22.73
2018-02-20T22:25:20.015Z,24.17
2018-02-20T22:27:49.303Z,21.85
2018-02-20T22:30:18.584Z,24.33
2018-02-20T22:32:47.936Z,27.48
2018-02-20T22:35:17.198Z,24.80
2018-02-20T22:37:46.496Z,21.73
2018-02-20T22:40:15.760Z,22.20
2018-02-20T22:42:45.058Z,25.20
2018-02-20T22:45:14.348Z,24.17
2018-02-20T22:47:43.645Z,24.05
2018-02-20T22:50:12.935Z,25.57
2018-02-20T22:52:42.219Z,26.08
2018-02-20T22:55:11.543Z,26.75
2018-02-20T22:57:40.859Z,24.50
2018-02-20T23:00:10.160Z,24.48
2018-02-20T23:02:39.450Z,23.73
2018-02-20T23:05:09.593Z,23.33
2018-02-20T23:07:38.827Z,27.08
2018-02-20T23:10:08.116Z,29.77
2018-02-20T23:12:38.199Z,27.08
2018-02-20T23:15:07.505Z,26.50
2018-02-20T23:17:36.775Z,27.45
2018-02-20T23:20:06.082Z,25.98
2018-02-20T23:22:35.379Z,25.95
2018-02-20T23:25:05.503Z,28.73
2018-02-20T23:27:34.862Z,26.87
2018-02-20T23:30:04.127Z,27.02
2018-02-20T23:32:34.448Z,27.10
2018-02-20T23:35:03.814Z,28.62
2018-02-20T23:37:34.269Z,25.50
2018-02-20T23:40:03.590Z,25.23
2018-02-20T23:42:32.876Z,27.50
2018-02-20T23:45:02.176Z,26.55
2018-02-20T23:47:31.490Z,28.35
2018-02-20T23:50:05.868Z,25.88
2018-02-20T23:52:35.142Z,26.83
2018-02-20T23:55:04.716Z,28.35
2018-02-20T23:57:33.976Z,26.50
